sensor_id;sensor_type;location;lat;lon;timestamp;P1;durP1;ratioP1;P2;durP2;ratioP2
1358;SDS011;673;48.098;14.422;2024-01-11T00:02:17;33.45;;;21.63;;
1358;SDS011;673;48.098;14.422;2024-01-11T00:04:44;31.00;;;20.05;;
1358;SDS011;673;48.098;14.422;2024-01-11T00:07:11;39.30;;;21.35;;
1358;SDS011;673;48.098;14.422;2024-01-11T00:09:38;31.35;;;20.35;;
1358;SDS011;673;48.098;14.422;2024-01-11T00:12:06;30.92;;;19.10;;
1358;SDS011;673;48.098;14.422;2024-01-11T00:14:34;32.20;;;20.15;;
1358;SDS011;673;48.098;14.422;2024-01-11T00:17:03;43.38;;;22.65;;
1358;SDS011;673;48.098;14.422;2024-01-11T00:19:30;29.15;;;19.98;;
1358;SDS011;673;48.098;14.422;2024-01-11T00:21:57;36.38;;;21.95;;
1358;SDS011;673;48.098;14.422;2024-01-11T00:24:24;37.60;;;22.30;;
1358;SDS011;673;48.098;14.422;2024-01-11T00:26:51;43.50;;;24.52;;
1358;SDS011;673;48.098;14.422;2024-01-11T00:29:18;43.13;;;24.05;;
1358;SDS011;673;48.098;14.422;2024-01-11T00:31:45;32.42;;;21.65;;
1358;SDS011;673;48.098;14.422;2024-01-11T00:34:13;39.50;;;23.25;;
1358;SDS011;673;48.098;14.422;2024-01-11T00:36:40;33.25;;;20.65;;
1358;SDS011;673;48.098;14.422;2024-01-11T00:39:06;43.47;;;20.10;;
1358;SDS011;673;48.098;14.422;2024-01-11T00:41:35;30.65;;;17.67;;
1358;SDS011;673;48.098;14.422;2024-01-11T00:44:08;30.52;;;19.60;;
1358;SDS011;673;48.098;14.422;2024-01-11T00:46:35;34.45;;;18.50;;
1358;SDS011;673;48.098;14.422;2024-01-11T00:49:03;32.45;;;18.70;;
1358;SDS011;673;48.098;14.422;2024-01-11T00:51:31;33.92;;;19.02;;
1358;SDS011;673;48.098;14.422;2024-01-11T00:53:58;33.00;;;17.60;;
1358;SDS011;673;48.098;14.422;2024-01-11T00:56:25;30.98;;;17.70;;
1358;SDS011;673;48.098;14.422;2024-01-11T00:58:52;30.55;;;19.42;;
1358;SDS011;673;48.098;14.422;2024-01-11T01:01:19;30.77;;;16.88;;
1358;SDS011;673;48.098;14.422;2024-01-11T01:03:46;31.13;;;18.17;;
1358;SDS011;673;48.098;14.422;2024-01-11T01:06:13;31.90;;;17.42;;
1358;SDS011;673;48.098;14.422;2024-01-11T01:08:42;40.08;;;18.83;;
1358;SDS011;673;48.098;14.422;2024-01-11T01:11:09;34.00;;;19.20;;
1358;SDS011;673;48.098;14.422;2024-01-11T01:13:43;33.97;;;18.23;;
1358;SDS011;673;48.098;14.422;2024-01-11T01:16:10;26.67;;;17.35;;
1358;SDS011;673;48.098;14.422;2024-01-11T01:18:42;29.27;;;17.52;;
1358;SDS011;673;48.098;14.422;2024-01-11T01:21:12;33.35;;;18.75;;
1358;SDS011;673;48.098;14.422;2024-01-11T01:23:45;36.58;;;19.02;;
1358;SDS011;673;48.098;14.422;2024-01-11T01:26:13;34.10;;;18.83;;
1358;SDS011;673;48.098;14.422;2024-01-11T01:28:40;30.85;;;18.52;;
1358;SDS011;673;48.098;14.422;2024-01-11T01:31:07;30.33;;;18.73;;
1358;SDS011;673;48.098;14.422;2024-01-11T01:33:34;32.25;;;17.50;;
1358;SDS011;673;48.098;14.422;2024-01-11T01:36:01;34.53;;;19.70;;
1358;SDS011;673;48.098;14.422;2024-01-11T01:38:28;31.70;;;18.02;;
1358;SDS011;673;48.098;14.422;2024-01-11T01:40:57;31.45;;;18.42;;
1358;SDS011;673;48.098;14.422;2024-01-11T01:43:24;28.02;;;16.90;;
1358;SDS011;673;48.098;14.422;2024-01-11T01:45:51;36.10;;;19.33;;
1358;SDS011;673;48.098;14.422;2024-01-11T01:48:18;30.08;;;18.50;;
1358;SDS011;673;48.098;14.422;2024-01-11T01:50:46;30.25;;;19.90;;
1358;SDS011;673;48.098;14.422;2024-01-11T01:53:15;35.92;;;19.77;;
1358;SDS011;673;48.098;14.422;2024-01-11T01:55:43;29.80;;;18.08;;
1358;SDS011;673;48.098;14.422;2024-01-11T01:58:11;33.58;;;19.27;;
1358;SDS011;673;48.098;14.422;2024-01-11T02:00:39;31.90;;;18.35;;
1358;SDS011;673;48.098;14.422;2024-01-11T02:03:07;32.83;;;15.80;;
1358;SDS011;673;48.098;14.422;2024-01-11T02:05:35;40.78;;;20.65;;
1358;SDS011;673;48.098;14.422;2024-01-11T02:08:06;28.90;;;16.67;;
1358;SDS011;673;48.098;14.422;2024-01-11T02:10:34;34.80;;;18.75;;
1358;SDS011;673;48.098;14.422;2024-01-11T02:13:01;31.38;;;18.50;;
1358;SDS011;673;48.098;14.422;2024-01-11T02:15:30;34.20;;;20.30;;
1358;SDS011;673;48.098;14.422;2024-01-11T02:17:57;36.25;;;17.98;;
1358;SDS011;673;48.098;14.422;2024-01-11T02:20:24;28.52;;;17.98;;
1358;SDS011;673;48.098;14.422;2024-01-11T02:22:53;31.98;;;16.85;;
1358;SDS011;673;48.098;14.422;2024-01-11T02:25:25;33.50;;;21.30;;
1358;SDS011;673;48.098;14.422;2024-01-11T02:27:52;31.70;;;19.77;;
1358;SDS011;673;48.098;14.422;2024-01-11T02:30:19;56.00;;;28.98;;
1358;SDS011;673;48.098;14.422;2024-01-11T02:32:47;41.78;;;21.75;;
1358;SDS011;673;48.098;14.422;2024-01-11T02:35:15;32.65;;;19.67;;
1358;SDS011;673;48.098;14.422;2024-01-11T02:37:42;31.95;;;19.35;;
1358;SDS011;673;48.098;14.422;2024-01-11T02:40:10;31.77;;;19.20;;
1358;SDS011;673;48.098;14.422;2024-01-11T02:42:41;27.00;;;16.90;;
1358;SDS011;673;48.098;14.422;2024-01-11T02:45:08;42.92;;;20.40;;
1358;SDS011;673;48.098;14.422;2024-01-11T02:47:37;30.10;;;18.33;;
1358;SDS011;673;48.098;14.422;2024-01-11T02:50:05;33.63;;;17.58;;
1358;SDS011;673;48.098;14.422;2024-01-11T02:52:33;31.10;;;17.48;;
1358;SDS011;673;48.098;14.422;2024-01-11T02:55:00;37.80;;;19.40;;
1358;SDS011;673;48.098;14.422;2024-01-11T02:57:27;27.75;;;17.77;;
1358;SDS011;673;48.098;14.422;2024-01-11T02:59:55;34.00;;;17.65;;
1358;SDS011;673;48.098;14.422;2024-01-11T03:02:22;25.58;;;18.35;;
1358;SDS011;673;48.098;14.422;2024-01-11T03:04:49;24.60;;;18.63;;
1358;SDS011;673;48.098;14.422;2024-01-11T03:07:16;31.20;;;18.42;;
1358;SDS011;673;48.098;14.422;2024-01-11T03:09:43;34.25;;;17.95;;
1358;SDS011;673;48.098;14.422;2024-01-11T03:12:10;33.08;;;19.90;;
1358;SDS011;673;48.098;14.422;2024-01-11T03:14:37;32.90;;;20.38;;
1358;SDS011;673;48.098;14.422;2024-01-11T03:17:05;31.30;;;17.63;;
1358;SDS011;673;48.098;14.422;2024-01-11T03:19:32;34.30;;;18.75;;
1358;SDS011;673;48.098;14.422;2024-01-11T03:21:59;34.00;;;19.83;;
1358;SDS011;673;48.098;14.422;2024-01-11T03:24:31;33.63;;;19.40;;
1358;SDS011;673;48.098;14.422;2024-01-11T03:26:58;31.83;;;18.90;;
1358;SDS011;673;48.098;14.422;2024-01-11T03:29:25;29.85;;;18.13;;
1358;SDS011;673;48.098;14.422;2024-01-11T03:31:52;30.90;;;19.48;;
1358;SDS011;673;48.098;14.422;2024-01-11T03:34:20;27.83;;;17.38;;
1358;SDS011;673;48.098;14.422;2024-01-11T03:36:47;34.25;;;19.63;;
1358;SDS011;673;48.098;14.422;2024-01-11T03:39:14;27.48;;;17.08;;
1358;SDS011;673;48.098;14.422;2024-01-11T03:41:43;29.88;;;17.52;;
1358;SDS011;673;48.098;14.422;2024-01-11T03:44:10;37.05;;;17.42;;
1358;SDS011;673;48.098;14.422;2024-01-11T03:46:37;27.65;;;17.92;;
1358;SDS011;673;48.098;14.422;2024-01-11T03:49:04;32.83;;;18.95;;
1358;SDS011;673;48.098;14.422;2024-01-11T03:51:34;30.98;;;18.55;;
1358;SDS011;673;48.098;14.422;2024-01-11T03:54:01;38.53;;;17.88;;
1358;SDS011;673;48.098;14.422;2024-01-11T03:56:28;33.22;;;16.90;;
1358;SDS011;673;48.098;14.422;2024-01-11T03:58:55;27.42;;;17.45;;
1358;SDS011;673;48.098;14.422;2024-01-11T04:01:22;32.08;;;18.65;;
1358;SDS011;673;48.098;14.422;2024-01-11T04:03:49;32.67;;;18.60;;
1358;SDS011;673;48.098;14.422;2024-01-11T04:06:19;31.77;;;16.88;;
1358;SDS011;673;48.098;14.422;2024-01-11T04:08:48;23.65;;;16.13;;
1358;SDS011;673;48.098;14.422;2024-01-11T04:11:16;32.63;;;18.17;;
1358;SDS011;673;48.098;14.422;2024-01-11T04:13:43;31.02;;;19.10;;
1358;SDS011;673;48.098;14.422;2024-01-11T04:16:10;26.75;;;17.13;;
1358;SDS011;673;48.098;14.422;2024-01-11T04:18:37;36.13;;;18.92;;
1358;SDS011;673;48.098;14.422;2024-01-11T04:21:04;28.55;;;18.63;;
1358;SDS011;673;48.098;14.422;2024-01-11T04:23:31;29.67;;;16.58;;
1358;SDS011;673;48.098;14.422;2024-01-11T04:26:00;24.23;;;16.00;;
1358;SDS011;673;48.098;14.422;2024-01-11T04:28:26;24.05;;;15.90;;
1358;SDS011;673;48.098;14.422;2024-01-11T04:30:54;27.92;;;16.08;;
1358;SDS011;673;48.098;14.422;2024-01-11T04:33:21;29.42;;;17.58;;
1358;SDS011;673;48.098;14.422;2024-01-11T04:35:47;31.03;;;16.50;;
1358;SDS011;673;48.098;14.422;2024-01-11T04:38:13;30.05;;;19.75;;
1358;SDS011;673;48.098;14.422;2024-01-11T04:40:41;29.98;;;20.15;;
1358;SDS011;673;48.098;14.422;2024-01-11T04:43:09;33.40;;;19.02;;
1358;SDS011;673;48.098;14.422;2024-01-11T04:45:36;24.00;;;15.63;;
1358;SDS011;673;48.098;14.422;2024-01-11T04:48:03;29.73;;;16.50;;
1358;SDS011;673;48.098;14.422;2024-01-11T04:50:31;34.42;;;18.75;;
1358;SDS011;673;48.098;14.422;2024-01-11T04:52:58;22.83;;;16.98;;
1358;SDS011;673;48.098;14.422;2024-01-11T04:55:25;27.48;;;17.15;;
1358;SDS011;673;48.098;14.422;2024-01-11T04:57:52;32.22;;;19.50;;
1358;SDS011;673;48.098;14.422;2024-01-11T05:00:20;52.60;;;23.55;;
1358;SDS011;673;48.098;14.422;2024-01-11T05:02:47;34.67;;;17.88;;
1358;SDS011;673;48.098;14.422;2024-01-11T05:05:14;42.72;;;23.33;;
1358;SDS011;673;48.098;14.422;2024-01-11T05:07:41;38.35;;;23.42;;
1358;SDS011;673;48.098;14.422;2024-01-11T05:10:08;29.75;;;21.35;;
1358;SDS011;673;48.098;14.422;2024-01-11T05:12:35;54.05;;;18.05;;
1358;SDS011;673;48.098;14.422;2024-01-11T05:15:04;27.65;;;18.48;;
1358;SDS011;673;48.098;14.422;2024-01-11T05:17:36;29.40;;;18.65;;
1358;SDS011;673;48.098;14.422;2024-01-11T05:20:03;32.38;;;19.55;;
1358;SDS011;673;48.098;14.422;2024-01-11T05:22:31;28.13;;;18.20;;
1358;SDS011;673;48.098;14.422;2024-01-11T05:24:57;29.42;;;18.80;;
1358;SDS011;673;48.098;14.422;2024-01-11T05:27:24;28.73;;;15.32;;
1358;SDS011;673;48.098;14.422;2024-01-11T05:29:51;25.50;;;17.02;;
1358;SDS011;673;48.098;14.422;2024-01-11T05:32:18;30.80;;;18.60;;
1358;SDS011;673;48.098;14.422;2024-01-11T05:34:46;26.52;;;16.95;;
1358;SDS011;673;48.098;14.422;2024-01-11T05:37:13;30.80;;;17.55;;
1358;SDS011;673;48.098;14.422;2024-01-11T05:39:40;29.88;;;18.85;;
1358;SDS011;673;48.098;14.422;2024-01-11T05:42:07;36.97;;;20.05;;
1358;SDS011;673;48.098;14.422;2024-01-11T05:44:34;31.83;;;18.50;;
1358;SDS011;673;48.098;14.422;2024-01-11T05:47:01;25.10;;;15.88;;
1358;SDS011;673;48.098;14.422;2024-01-11T05:49:28;30.30;;;15.85;;
1358;SDS011;673;48.098;14.422;2024-01-11T05:51:57;23.48;;;15.43;;
1358;SDS011;673;48.098;14.422;2024-01-11T05:54:24;35.15;;;20.40;;
1358;SDS011;673;48.098;14.422;2024-01-11T05:56:53;28.85;;;14.35;;
1358;SDS011;673;48.098;14.422;2024-01-11T05:59:23;31.23;;;18.15;;
1358;SDS011;673;48.098;14.422;2024-01-11T06:01:50;34.70;;;18.85;;
1358;SDS011;673;48.098;14.422;2024-01-11T06:04:17;29.00;;;16.75;;
1358;SDS011;673;48.098;14.422;2024-01-11T06:06:44;34.00;;;17.85;;
1358;SDS011;673;48.098;14.422;2024-01-11T06:09:12;38.33;;;17.50;;
1358;SDS011;673;48.098;14.422;2024-01-11T06:11:39;35.50;;;16.50;;
1358;SDS011;673;48.098;14.422;2024-01-11T06:14:06;28.25;;;18.40;;
1358;SDS011;673;48.098;14.422;2024-01-11T06:16:33;24.73;;;15.75;;
1358;SDS011;673;48.098;14.422;2024-01-11T06:19:00;26.10;;;17.83;;
1358;SDS011;673;48.098;14.422;2024-01-11T06:21:27;29.05;;;17.40;;
1358;SDS011;673;48.098;14.422;2024-01-11T06:23:54;30.08;;;17.80;;
1358;SDS011;673;48.098;14.422;2024-01-11T06:26:23;29.30;;;18.08;;
1358;SDS011;673;48.098;14.422;2024-01-11T06:28:49;32.30;;;18.45;;
1358;SDS011;673;48.098;14.422;2024-01-11T06:31:16;29.95;;;17.58;;
1358;SDS011;673;48.098;14.422;2024-01-11T06:33:43;32.20;;;18.38;;
1358;SDS011;673;48.098;14.422;2024-01-11T06:36:10;30.90;;;18.75;;
1358;SDS011;673;48.098;14.422;2024-01-11T06:38:37;33.38;;;20.02;;
1358;SDS011;673;48.098;14.422;2024-01-11T06:41:04;28.90;;;19.70;;
1358;SDS011;673;48.098;14.422;2024-01-11T06:43:33;27.92;;;17.85;;
1358;SDS011;673;48.098;14.422;2024-01-11T06:46:02;34.20;;;19.85;;
1358;SDS011;673;48.098;14.422;2024-01-11T06:48:30;36.40;;;18.73;;
1358;SDS011;673;48.098;14.422;2024-01-11T06:50:57;35.97;;;17.90;;
1358;SDS011;673;48.098;14.422;2024-01-11T06:53:24;30.40;;;18.88;;
1358;SDS011;673;48.098;14.422;2024-01-11T06:55:50;46.42;;;22.55;;
1358;SDS011;673;48.098;14.422;2024-01-11T06:58:20;37.40;;;20.52;;
1358;SDS011;673;48.098;14.422;2024-01-11T07:00:49;42.35;;;20.42;;
1358;SDS011;673;48.098;14.422;2024-01-11T07:03:16;33.30;;;18.50;;
1358;SDS011;673;48.098;14.422;2024-01-11T07:05:43;40.97;;;23.90;;
1358;SDS011;673;48.098;14.422;2024-01-11T07:08:10;36.13;;;16.88;;
1358;SDS011;673;48.098;14.422;2024-01-11T07:10:37;45.42;;;22.60;;
1358;SDS011;673;48.098;14.422;2024-01-11T07:13:04;34.35;;;18.52;;
1358;SDS011;673;48.098;14.422;2024-01-11T07:15:31;39.42;;;23.00;;
1358;SDS011;673;48.098;14.422;2024-01-11T07:18:00;44.25;;;20.17;;
1358;SDS011;673;48.098;14.422;2024-01-11T07:20:27;44.63;;;21.70;;
1358;SDS011;673;48.098;14.422;2024-01-11T07:22:54;36.22;;;18.20;;
1358;SDS011;673;48.098;14.422;2024-01-11T07:25:21;41.50;;;20.95;;
1358;SDS011;673;48.098;14.422;2024-01-11T07:27:49;33.60;;;23.50;;
1358;SDS011;673;48.098;14.422;2024-01-11T07:30:16;33.67;;;19.40;;
1358;SDS011;673;48.098;14.422;2024-01-11T07:32:44;40.75;;;21.60;;
1358;SDS011;673;48.098;14.422;2024-01-11T07:35:13;45.50;;;20.20;;
1358;SDS011;673;48.098;14.422;2024-01-11T07:37:40;38.33;;;23.15;;
1358;SDS011;673;48.098;14.422;2024-01-11T07:40:08;32.88;;;20.00;;
1358;SDS011;673;48.098;14.422;2024-01-11T07:42:37;27.42;;;18.98;;
1358;SDS011;673;48.098;14.422;2024-01-11T07:45:04;44.75;;;23.58;;
1358;SDS011;673;48.098;14.422;2024-01-11T07:47:32;34.13;;;19.50;;
1358;SDS011;673;48.098;14.422;2024-01-11T07:49:59;37.97;;;23.85;;
1358;SDS011;673;48.098;14.422;2024-01-11T07:52:28;43.17;;;22.92;;
1358;SDS011;673;48.098;14.422;2024-01-11T07:54:55;89.78;;;51.03;;
1358;SDS011;673;48.098;14.422;2024-01-11T07:57:23;75.00;;;39.05;;
1358;SDS011;673;48.098;14.422;2024-01-11T07:59:50;46.92;;;29.52;;
1358;SDS011;673;48.098;14.422;2024-01-11T08:02:16;51.10;;;30.10;;
1358;SDS011;673;48.098;14.422;2024-01-11T08:04:43;114.32;;;56.50;;
1358;SDS011;673;48.098;14.422;2024-01-11T08:07:10;44.15;;;27.80;;
1358;SDS011;673;48.098;14.422;2024-01-11T08:09:39;48.55;;;32.42;;
1358;SDS011;673;48.098;14.422;2024-01-11T08:12:10;45.47;;;24.25;;
1358;SDS011;673;48.098;14.422;2024-01-11T08:14:38;62.15;;;38.20;;
1358;SDS011;673;48.098;14.422;2024-01-11T08:17:07;64.25;;;35.72;;
1358;SDS011;673;48.098;14.422;2024-01-11T08:19:34;47.55;;;26.13;;
1358;SDS011;673;48.098;14.422;2024-01-11T08:22:01;49.47;;;24.52;;
1358;SDS011;673;48.098;14.422;2024-01-11T08:24:28;46.63;;;28.85;;
1358;SDS011;673;48.098;14.422;2024-01-11T08:26:57;51.95;;;29.55;;
1358;SDS011;673;48.098;14.422;2024-01-11T08:29:24;48.63;;;27.92;;
1358;SDS011;673;48.098;14.422;2024-01-11T08:31:51;46.58;;;25.52;;
1358;SDS011;673;48.098;14.422;2024-01-11T08:34:19;41.58;;;24.60;;
1358;SDS011;673;48.098;14.422;2024-01-11T08:36:46;34.20;;;22.63;;
1358;SDS011;673;48.098;14.422;2024-01-11T08:39:13;44.08;;;25.17;;
1358;SDS011;673;48.098;14.422;2024-01-11T08:41:41;40.65;;;23.98;;
1358;SDS011;673;48.098;14.422;2024-01-11T08:44:09;42.20;;;25.77;;
1358;SDS011;673;48.098;14.422;2024-01-11T08:46:36;47.35;;;29.52;;
1358;SDS011;673;48.098;14.422;2024-01-11T08:49:03;52.25;;;33.17;;
1358;SDS011;673;48.098;14.422;2024-01-11T08:51:30;55.30;;;28.98;;
1358;SDS011;673;48.098;14.422;2024-01-11T08:53:58;55.83;;;31.80;;
1358;SDS011;673;48.098;14.422;2024-01-11T08:56:25;56.45;;;32.65;;
1358;SDS011;673;48.098;14.422;2024-01-11T08:58:53;49.67;;;31.13;;
1358;SDS011;673;48.098;14.422;2024-01-11T09:01:21;56.53;;;33.75;;
1358;SDS011;673;48.098;14.422;2024-01-11T09:03:50;48.97;;;30.00;;
1358;SDS011;673;48.098;14.422;2024-01-11T09:06:17;46.80;;;29.45;;
1358;SDS011;673;48.098;14.422;2024-01-11T09:08:44;43.63;;;26.25;;
1358;SDS011;673;48.098;14.422;2024-01-11T09:11:11;52.90;;;30.30;;
1358;SDS011;673;48.098;14.422;2024-01-11T09:13:38;46.80;;;27.90;;
1358;SDS011;673;48.098;14.422;2024-01-11T09:16:05;49.13;;;28.17;;
1358;SDS011;673;48.098;14.422;2024-01-11T09:18:36;42.40;;;26.80;;
1358;SDS011;673;48.098;14.422;2024-01-11T09:21:03;43.90;;;27.85;;
1358;SDS011;673;48.098;14.422;2024-01-11T09:23:30;37.53;;;24.67;;
1358;SDS011;673;48.098;14.422;2024-01-11T09:25:57;52.10;;;28.52;;
1358;SDS011;673;48.098;14.422;2024-01-11T09:28:24;38.88;;;24.75;;
1358;SDS011;673;48.098;14.422;2024-01-11T09:30:50;47.97;;;27.98;;
1358;SDS011;673;48.098;14.422;2024-01-11T09:33:17;40.38;;;23.17;;
1358;SDS011;673;48.098;14.422;2024-01-11T09:35:46;42.20;;;25.90;;
1358;SDS011;673;48.098;14.422;2024-01-11T09:38:13;42.92;;;27.02;;
1358;SDS011;673;48.098;14.422;2024-01-11T09:40:40;36.63;;;22.33;;
1358;SDS011;673;48.098;14.422;2024-01-11T09:43:07;41.75;;;24.60;;
1358;SDS011;673;48.098;14.422;2024-01-11T09:45:37;40.67;;;27.55;;
1358;SDS011;673;48.098;14.422;2024-01-11T09:48:04;40.35;;;25.40;;
1358;SDS011;673;48.098;14.422;2024-01-11T09:50:34;51.00;;;27.35;;
1358;SDS011;673;48.098;14.422;2024-01-11T09:53:04;43.42;;;25.20;;
1358;SDS011;673;48.098;14.422;2024-01-11T09:55:33;44.85;;;25.83;;
1358;SDS011;673;48.098;14.422;2024-01-11T09:58:01;39.70;;;22.92;;
1358;SDS011;673;48.098;14.422;2024-01-11T10:00:29;42.40;;;25.00;;
1358;SDS011;673;48.098;14.422;2024-01-11T10:02:57;44.38;;;24.50;;
1358;SDS011;673;48.098;14.422;2024-01-11T10:05:24;38.75;;;22.98;;
1358;SDS011;673;48.098;14.422;2024-01-11T10:07:53;47.28;;;26.58;;
1358;SDS011;673;48.098;14.422;2024-01-11T10:10:21;44.30;;;24.67;;
1358;SDS011;673;48.098;14.422;2024-01-11T10:12:48;36.10;;;23.42;;
1358;SDS011;673;48.098;14.422;2024-01-11T10:15:15;39.88;;;22.80;;
1358;SDS011;673;48.098;14.422;2024-01-11T10:17:42;44.33;;;27.23;;
1358;SDS011;673;48.098;14.422;2024-01-11T10:20:11;39.63;;;23.70;;
1358;SDS011;673;48.098;14.422;2024-01-11T10:22:39;41.38;;;26.67;;
1358;SDS011;673;48.098;14.422;2024-01-11T10:25:09;41.13;;;23.08;;
1358;SDS011;673;48.098;14.422;2024-01-11T10:27:39;36.55;;;24.75;;
1358;SDS011;673;48.098;14.422;2024-01-11T10:30:08;38.38;;;23.60;;
1358;SDS011;673;48.098;14.422;2024-01-11T10:32:38;36.67;;;22.60;;
1358;SDS011;673;48.098;14.422;2024-01-11T10:35:05;34.78;;;21.98;;
1358;SDS011;673;48.098;14.422;2024-01-11T10:37:32;30.45;;;20.58;;
1358;SDS011;673;48.098;14.422;2024-01-11T10:40:02;31.80;;;19.13;;
1358;SDS011;673;48.098;14.422;2024-01-11T10:42:34;36.97;;;24.25;;
1358;SDS011;673;48.098;14.422;2024-01-11T10:45:06;36.25;;;22.65;;
1358;SDS011;673;48.098;14.422;2024-01-11T10:47:42;36.53;;;20.83;;
1358;SDS011;673;48.098;14.422;2024-01-11T10:50:15;33.95;;;21.65;;
1358;SDS011;673;48.098;14.422;2024-01-11T10:52:46;40.55;;;22.75;;
1358;SDS011;673;48.098;14.422;2024-01-11T10:55:27;36.67;;;21.52;;
1358;SDS011;673;48.098;14.422;2024-01-11T10:57:57;42.90;;;22.75;;
1358;SDS011;673;48.098;14.422;2024-01-11T11:00:27;31.20;;;20.77;;
1358;SDS011;673;48.098;14.422;2024-01-11T11:02:55;38.95;;;24.80;;
1358;SDS011;673;48.098;14.422;2024-01-11T11:05:25;36.50;;;21.95;;
1358;SDS011;673;48.098;14.422;2024-01-11T11:07:53;38.33;;;23.50;;
1358;SDS011;673;48.098;14.422;2024-01-11T11:10:22;34.85;;;21.33;;
1358;SDS011;673;48.098;14.422;2024-01-11T11:12:51;33.15;;;22.42;;
1358;SDS011;673;48.098;14.422;2024-01-11T11:15:20;31.38;;;22.48;;
1358;SDS011;673;48.098;14.422;2024-01-11T11:17:49;31.75;;;21.40;;
1358;SDS011;673;48.098;14.422;2024-01-11T11:20:18;36.83;;;23.50;;
1358;SDS011;673;48.098;14.422;2024-01-11T11:22:48;35.15;;;26.48;;
1358;SDS011;673;48.098;14.422;2024-01-11T11:25:28;30.65;;;20.88;;
1358;SDS011;673;48.098;14.422;2024-01-11T11:27:57;35.65;;;21.83;;
1358;SDS011;673;48.098;14.422;2024-01-11T11:30:26;38.63;;;20.73;;
1358;SDS011;673;48.098;14.422;2024-01-11T11:32:55;33.35;;;22.38;;
1358;SDS011;673;48.098;14.422;2024-01-11T11:35:22;33.35;;;20.38;;
1358;SDS011;673;48.098;14.422;2024-01-11T11:37:53;34.90;;;21.17;;
1358;SDS011;673;48.098;14.422;2024-01-11T11:40:22;37.40;;;23.27;;
1358;SDS011;673;48.098;14.422;2024-01-11T11:43:00;37.85;;;22.17;;
1358;SDS011;673;48.098;14.422;2024-01-11T11:45:30;38.88;;;23.08;;
1358;SDS011;673;48.098;14.422;2024-01-11T11:47:59;33.25;;;22.17;;
1358;SDS011;673;48.098;14.422;2024-01-11T11:50:26;37.65;;;22.55;;
1358;SDS011;673;48.098;14.422;2024-01-11T11:52:53;36.70;;;22.05;;
1358;SDS011;673;48.098;14.422;2024-01-11T11:55:22;39.70;;;24.30;;
1358;SDS011;673;48.098;14.422;2024-01-11T11:57:50;34.58;;;22.75;;
1358;SDS011;673;48.098;14.422;2024-01-11T12:00:18;36.83;;;24.10;;
1358;SDS011;673;48.098;14.422;2024-01-11T12:02:46;37.55;;;23.83;;
1358;SDS011;673;48.098;14.422;2024-01-11T12:05:16;40.70;;;23.02;;
1358;SDS011;673;48.098;14.422;2024-01-11T12:07:44;36.30;;;21.88;;
1358;SDS011;673;48.098;14.422;2024-01-11T12:10:11;34.72;;;20.77;;
1358;SDS011;673;48.098;14.422;2024-01-11T12:12:38;37.28;;;25.10;;
1358;SDS011;673;48.098;14.422;2024-01-11T12:15:06;43.00;;;23.05;;
1358;SDS011;673;48.098;14.422;2024-01-11T12:17:34;41.85;;;24.45;;
1358;SDS011;673;48.098;14.422;2024-01-11T12:20:04;33.90;;;22.55;;
1358;SDS011;673;48.098;14.422;2024-01-11T12:22:34;37.42;;;23.35;;
1358;SDS011;673;48.098;14.422;2024-01-11T12:25:01;38.65;;;22.65;;
1358;SDS011;673;48.098;14.422;2024-01-11T12:27:28;40.67;;;22.67;;
1358;SDS011;673;48.098;14.422;2024-01-11T12:29:57;34.70;;;21.13;;
1358;SDS011;673;48.098;14.422;2024-01-11T12:32:24;37.67;;;23.80;;
1358;SDS011;673;48.098;14.422;2024-01-11T12:34:51;33.40;;;20.67;;
1358;SDS011;673;48.098;14.422;2024-01-11T12:37:18;35.40;;;23.65;;
1358;SDS011;673;48.098;14.422;2024-01-11T12:39:47;35.50;;;24.33;;
1358;SDS011;673;48.098;14.422;2024-01-11T12:42:14;41.75;;;23.63;;
1358;SDS011;673;48.098;14.422;2024-01-11T12:44:41;37.15;;;21.27;;
1358;SDS011;673;48.098;14.422;2024-01-11T12:47:08;40.63;;;22.83;;
1358;SDS011;673;48.098;14.422;2024-01-11T12:49:36;40.30;;;24.02;;
1358;SDS011;673;48.098;14.422;2024-01-11T12:52:03;40.65;;;24.50;;
1358;SDS011;673;48.098;14.422;2024-01-11T12:54:31;43.67;;;24.35;;
1358;SDS011;673;48.098;14.422;2024-01-11T12:57:01;41.83;;;26.08;;
1358;SDS011;673;48.098;14.422;2024-01-11T12:59:28;53.97;;;31.70;;
1358;SDS011;673;48.098;14.422;2024-01-11T13:01:55;39.30;;;24.33;;
1358;SDS011;673;48.098;14.422;2024-01-11T13:04:24;35.95;;;24.13;;
1358;SDS011;673;48.098;14.422;2024-01-11T13:06:51;40.33;;;26.20;;
1358;SDS011;673;48.098;14.422;2024-01-11T13:09:20;38.35;;;24.42;;
1358;SDS011;673;48.098;14.422;2024-01-11T13:11:48;31.25;;;21.23;;
1358;SDS011;673;48.098;14.422;2024-01-11T13:14:16;34.90;;;23.15;;
1358;SDS011;673;48.098;14.422;2024-01-11T13:16:44;39.17;;;22.70;;
1358;SDS011;673;48.098;14.422;2024-01-11T13:19:13;29.85;;;17.85;;
1358;SDS011;673;48.098;14.422;2024-01-11T13:21:40;33.83;;;21.70;;
1358;SDS011;673;48.098;14.422;2024-01-11T13:24:07;38.78;;;21.42;;
1358;SDS011;673;48.098;14.422;2024-01-11T13:26:35;34.67;;;22.75;;
1358;SDS011;673;48.098;14.422;2024-01-11T13:29:02;38.53;;;20.35;;
1358;SDS011;673;48.098;14.422;2024-01-11T13:31:32;46.00;;;25.52;;
1358;SDS011;673;48.098;14.422;2024-01-11T13:33:59;42.20;;;24.63;;
1358;SDS011;673;48.098;14.422;2024-01-11T13:36:26;37.90;;;22.92;;
1358;SDS011;673;48.098;14.422;2024-01-11T13:38:54;39.40;;;23.02;;
1358;SDS011;673;48.098;14.422;2024-01-11T13:41:21;27.67;;;19.17;;
1358;SDS011;673;48.098;14.422;2024-01-11T13:43:48;38.97;;;22.02;;
1358;SDS011;673;48.098;14.422;2024-01-11T13:46:15;43.25;;;24.23;;
1358;SDS011;673;48.098;14.422;2024-01-11T13:48:46;41.03;;;23.38;;
1358;SDS011;673;48.098;14.422;2024-01-11T13:51:13;45.72;;;25.98;;
1358;SDS011;673;48.098;14.422;2024-01-11T13:53:40;34.50;;;20.90;;
1358;SDS011;673;48.098;14.422;2024-01-11T13:56:07;31.45;;;19.23;;
1358;SDS011;673;48.098;14.422;2024-01-11T13:58:34;34.17;;;20.25;;
1358;SDS011;673;48.098;14.422;2024-01-11T14:01:02;33.90;;;19.48;;
1358;SDS011;673;48.098;14.422;2024-01-11T14:03:29;33.30;;;20.10;;
1358;SDS011;673;48.098;14.422;2024-01-11T14:05:58;35.00;;;21.17;;
1358;SDS011;673;48.098;14.422;2024-01-11T14:08:25;33.35;;;19.27;;
1358;SDS011;673;48.098;14.422;2024-01-11T14:10:52;31.25;;;19.00;;
1358;SDS011;673;48.098;14.422;2024-01-11T14:13:19;32.05;;;17.83;;
1358;SDS011;673;48.098;14.422;2024-01-11T14:15:46;33.53;;;18.95;;
1358;SDS011;673;48.098;14.422;2024-01-11T14:18:15;35.15;;;19.67;;
1358;SDS011;673;48.098;14.422;2024-01-11T14:20:42;33.72;;;21.58;;
1358;SDS011;673;48.098;14.422;2024-01-11T14:23:12;35.65;;;22.73;;
1358;SDS011;673;48.098;14.422;2024-01-11T14:25:39;41.78;;;24.27;;
1358;SDS011;673;48.098;14.422;2024-01-11T14:28:06;37.67;;;22.23;;
1358;SDS011;673;48.098;14.422;2024-01-11T14:30:33;33.80;;;20.80;;
1358;SDS011;673;48.098;14.422;2024-01-11T14:33:00;34.80;;;21.25;;
1358;SDS011;673;48.098;14.422;2024-01-11T14:35:28;43.00;;;24.58;;
1358;SDS011;673;48.098;14.422;2024-01-11T14:37:54;37.55;;;20.75;;
1358;SDS011;673;48.098;14.422;2024-01-11T14:40:23;36.60;;;22.27;;
1358;SDS011;673;48.098;14.422;2024-01-11T14:42:50;40.28;;;21.25;;
1358;SDS011;673;48.098;14.422;2024-01-11T14:45:17;37.10;;;20.42;;
1358;SDS011;673;48.098;14.422;2024-01-11T14:47:44;38.78;;;23.50;;
1358;SDS011;673;48.098;14.422;2024-01-11T14:50:11;32.05;;;20.00;;
1358;SDS011;673;48.098;14.422;2024-01-11T14:52:38;36.55;;;19.88;;